AirNav   Air Wisconsin Up To $57,000 Bonus
 
 818 users online  

FL84 Flying-A-Ranch Airport
Fernandina Beach, Florida, USA

GOING TO FERNANDINA BEACH?


FAA INFORMATION EFFECTIVE 31 DECEMBER 2020

Location

FAA Identifier: FL84
Lat/Long: 30-36-03.8530N 081-34-13.3430W
30-36.064217N 081-34.222383W
30.6010703,-81.5703731
(estimated)
Elevation: 25 ft. / 8 m (estimated)
Variation: 03W (1985)
From city: 7 miles SW of FERNANDINA BEACH, FL
Time zone: UTC -5 (UTC -4 during Daylight Saving Time)
Zip code: 32097

Airport Operations

Airport use: Private use. Permission required prior to landing
Activation date: 10/1971
Control tower: no
ARTCC: JACKSONVILLE CENTER
FSS: GAINESVILLE FLIGHT SERVICE STATION
Attendance: CONTINUOUS
Wind indicator: yes
Segmented circle: no

Airport Communications

WX AWOS-3 at FHB (6 nm E): 118.075 (904-277-7323)
WX ASOS at JAX (9 nm SW): 125.85 (904-741-4304)
WX ASOS at CRG (16 nm S): PHONE 904-646-4670

Nearby radio navigation aids

VOR radial/distance  VOR name  Freq  Var
CRGr352/16.0CRAIG VORTAC114.5003W
SSIr197/27.7BRUNSWICK VORTAC109.8004W
VQQr038/(28.6)CECIL VOR117.9003W

 
NDB name  Hdg/Dist  Freq  Var  ID
DINNS062/14.534406WJA .--- .-
REYNOLDS014/38.333807WRYD .-. -.-- -..

Airport Services

Airframe service: NONE
Powerplant service: NONE

Runway Information

Runway 5/23

Dimensions: 2000 x 100 ft. / 610 x 30 m
Surface: turf
RUNWAY 5  RUNWAY 23
Traffic pattern: leftleft
Displaced threshold: 600 ft.
THR UNMRKD.
no
Obstructions: 25 ft. trees, 650 ft. from runwaynone

Airport Ownership and Management from official FAA records

Ownership: Privately-owned
Owner: FRED ARNETT
2426 FLYING A RANCH ROAD
YULEE, FL 32097
Phone 904-225-5580
Manager: FRED ARNETT
2426 FLYING A RANCH ROAD
YULEE, FL 32097
Phone 904-225-5580

Airport Operational Statistics

Aircraft based on the field: 6
Single engine airplanes: 6
    

Additional Remarks

45' PLINE 120' FM SE SIDE RWY EDGE & PARALLELS RWY ENTIRE LENGTH.
FOR CD CTC JACKSONVILLE APCH AT 904-741-0284.

Instrument Procedures

There are no published instrument procedures at FL84.

Some nearby airports with instrument procedures:

KFHB - Fernandina Beach Municipal Airport (6 nm E)
KJAX - Jacksonville International Airport (9 nm SW)
KNRB - Mayport Naval Station (Adm David L. McDonald Field) (15 nm SE)
KCRG - Jacksonville Executive Airport at Craig (16 nm S)
KNIP - Jacksonville Naval Air Station (Towers Field) (23 nm S)
 
Loc | Ops | Rwys | IFR | FBO | Links
Com | Nav | Svcs | Stats | Notes
Area around FL84 (Flying-A-Ranch Airport)
 
Road maps at: MapQuest Bing Google
 
Aerial photo
No photo
 
Sectional chart

 
Airport distance calculator
Flying to Flying-A-Ranch Airport? Find the distance to fly.

From to FL84

Sunrise and sunset
Times for 18-Jan-2021
 Local
(UTC-5)
 Zulu
(UTC)
Morning civil twilight06:5911:59
Sunrise07:2512:25
Sunset17:4922:49
Evening civil twilight18:1523:15

Current date and time
Zulu (UTC)  18-Jan-2021 13:51:35
Local (UTC-5)  18-Jan-2021 08:51:35
 
METAR
KFHB 
6nm E 
181335Z AUTO 31011KT 10SM CLR 07/05 A3016 RMK AO2 T00730048
KJAX 
8nm SW 
181256Z 28007KT 10SM CLR 05/04 A3014 RMK AO2 SLP208 T00500039
KNRB 
15nm SE 
181252Z AUTO 29008KT 10SM CLR 08/04 A3014 RMK AO2 SLP206 T00830044
KCRG 
16nm S 
181253Z 29008KT 10SM CLR 08/03 A3015 RMK AO2 SLP208 T00830033
TAF
KJAX 
8nm SW 
181120Z 1812/1912 27007KT P6SM FEW250 FM181500 29010G18KT P6SM SKC FM182300 VRB02KT P6SM SKC
KCRG 
16nm S 
181120Z 1812/1912 27006KT P6SM FEW250 FM181500 29011G18KT P6SM SKC FM182300 VRB02KT P6SM SKC
NOTAMs
Click for the latest NOTAMs
NOTAMs are issued by the DoD/FAA and will open in a separate window not controlled by AirNav.

 

 
 

Would you like to see your business listed on this page?

 If your business provides an interesting product or service to pilots, flight crews, aircraft, or users of the Flying-A-Ranch Airport, you should consider listing it here.  To start the listing process, click on the button below
 
Add a business
 

Other Pages about Flying-A-Ranch Airport

Update a link
 
Copyright © AirNav, LLC. All rights reserved. Privacy Policy  Contact